Terminal Aerodrome Forecast
Issued by NWS Tulsa, OK

Current Version | Previous Version | Text Only | Print | Product List | Glossary On
Versions: 1 2 3 4 5 6 7 8 9 10 11 12 13 14 15 16 17 18
616
FTUS44 KTSA 221137
TAFTUL
TAF
KTUL 221137Z 2212/2312 18006KT P6SM SCT150 BKN250
     FM222300 VRB03KT P6SM BKN050 PROB30 2223/2305 5SM -TSRA
      BKN030CB
     FM231000 32006KT 4SM BR OVC012=

USA.gov is the U.S. government's official web portal to all federal, state and local government web resources and services.